KBPT/BPT METAR and TAF weather

Enter ICAO airport designator
Station Type Date Time Source
KBPT METAR 2020/07/10 18:53 UTC NOAA

KBPT 101853Z 21006KT 10SM FEW042 34/25 A3002 RMK AO2 SLP166 T03440250


Station Type Date Time Source
KBPT Decoded METAR 2020/07/10 18:53 UTC NOAA

SOUTHEAST TEXAS RGNL AIRPORT, TX, United States (KBPT) 29-95N 094-08W 5M
Jul 10, 2020 - 02:53 PM EDT / 2020.07.10 1853 UTC
Wind: from the SSW (210 degrees) at 7 MPH (6 KT):0
Visibility: 10 mile(s):0
Sky conditions: mostly clear
Temperature: 93.9 F (34.4 C)
Heat index: 108.3 F (42.4 C):1
Dew Point: 77.0 F (25.0 C)
Relative Humidity: 58%
Pressure (altimeter): 30.02 in. Hg (1016 hPa)
ob: KBPT 101853Z 21006KT 10SM FEW042 34/25 A3002 RMK AO2 SLP166 T03440250
cycle: 19

Station Type Date Time Source
KBPT TAF 2020/07/10 18:22 UTC NOAA

TAF KBPT 101720Z 1018/1118 22008KT P6SM SCT035
FM110100 23003KT P6SM SKC
FM111500 26006KT P6SM FEW025

Example: see airport list